sensor_id;sensor_type;location;lat;lon;timestamp;P1;durP1;ratioP1;P2;durP2;ratioP2
75823;SDS011;64457;51.976;9.834;2023-06-14T00:02:25;9.77;;;2.80;;
75823;SDS011;64457;51.976;9.834;2023-06-14T00:04:53;9.67;;;3.50;;
75823;SDS011;64457;51.976;9.834;2023-06-14T00:07:22;10.60;;;2.90;;
75823;SDS011;64457;51.976;9.834;2023-06-14T00:10:01;9.27;;;3.03;;
75823;SDS011;64457;51.976;9.834;2023-06-14T00:12:30;9.20;;;3.10;;
75823;SDS011;64457;51.976;9.834;2023-06-14T00:14:57;8.80;;;3.17;;
75823;SDS011;64457;51.976;9.834;2023-06-14T00:17:26;9.80;;;3.17;;
75823;SDS011;64457;51.976;9.834;2023-06-14T00:19:56;7.87;;;2.57;;
75823;SDS011;64457;51.976;9.834;2023-06-14T00:22:24;11.57;;;3.20;;
75823;SDS011;64457;51.976;9.834;2023-06-14T00:24:54;7.70;;;2.87;;
75823;SDS011;64457;51.976;9.834;2023-06-14T00:27:21;10.40;;;2.97;;
75823;SDS011;64457;51.976;9.834;2023-06-14T00:29:50;8.97;;;2.70;;
75823;SDS011;64457;51.976;9.834;2023-06-14T00:32:17;13.40;;;3.00;;
75823;SDS011;64457;51.976;9.834;2023-06-14T00:34:49;9.53;;;3.00;;
75823;SDS011;64457;51.976;9.834;2023-06-14T00:37:18;8.37;;;2.77;;
75823;SDS011;64457;51.976;9.834;2023-06-14T00:39:46;7.87;;;2.73;;
75823;SDS011;64457;51.976;9.834;2023-06-14T00:42:22;9.53;;;2.90;;
75823;SDS011;64457;51.976;9.834;2023-06-14T00:44:51;10.70;;;2.87;;
75823;SDS011;64457;51.976;9.834;2023-06-14T00:47:19;9.80;;;3.70;;
75823;SDS011;64457;51.976;9.834;2023-06-14T00:49:47;9.53;;;2.90;;
75823;SDS011;64457;51.976;9.834;2023-06-14T00:52:16;20.00;;;2.83;;
75823;SDS011;64457;51.976;9.834;2023-06-14T00:54:45;8.87;;;2.90;;
75823;SDS011;64457;51.976;9.834;2023-06-14T00:57:13;9.70;;;2.80;;
75823;SDS011;64457;51.976;9.834;2023-06-14T00:59:41;9.90;;;2.60;;
75823;SDS011;64457;51.976;9.834;2023-06-14T01:02:11;9.50;;;2.53;;
75823;SDS011;64457;51.976;9.834;2023-06-14T01:04:41;7.80;;;2.50;;
75823;SDS011;64457;51.976;9.834;2023-06-14T01:07:15;8.60;;;2.77;;
75823;SDS011;64457;51.976;9.834;2023-06-14T01:10:09;9.57;;;2.90;;
75823;SDS011;64457;51.976;9.834;2023-06-14T01:12:56;8.33;;;3.10;;
75823;SDS011;64457;51.976;9.834;2023-06-14T01:15:31;7.77;;;2.60;;
75823;SDS011;64457;51.976;9.834;2023-06-14T01:17:59;8.90;;;2.87;;
75823;SDS011;64457;51.976;9.834;2023-06-14T01:20:29;10.03;;;2.87;;
75823;SDS011;64457;51.976;9.834;2023-06-14T01:22:59;11.40;;;3.13;;
75823;SDS011;64457;51.976;9.834;2023-06-14T01:25:27;9.73;;;2.90;;
75823;SDS011;64457;51.976;9.834;2023-06-14T01:27:55;8.43;;;2.60;;
75823;SDS011;64457;51.976;9.834;2023-06-14T01:30:26;21.37;;;3.27;;
75823;SDS011;64457;51.976;9.834;2023-06-14T01:32:54;9.70;;;2.70;;
75823;SDS011;64457;51.976;9.834;2023-06-14T01:35:22;11.40;;;2.97;;
75823;SDS011;64457;51.976;9.834;2023-06-14T01:37:50;7.87;;;2.60;;
75823;SDS011;64457;51.976;9.834;2023-06-14T01:40:21;10.43;;;3.20;;
75823;SDS011;64457;51.976;9.834;2023-06-14T01:42:50;9.03;;;3.00;;
75823;SDS011;64457;51.976;9.834;2023-06-14T01:45:18;12.90;;;3.30;;
75823;SDS011;64457;51.976;9.834;2023-06-14T01:47:46;9.37;;;3.17;;
75823;SDS011;64457;51.976;9.834;2023-06-14T01:50:15;10.13;;;3.30;;
75823;SDS011;64457;51.976;9.834;2023-06-14T01:52:42;9.67;;;2.97;;
75823;SDS011;64457;51.976;9.834;2023-06-14T01:55:11;8.00;;;2.80;;
75823;SDS011;64457;51.976;9.834;2023-06-14T01:57:40;10.90;;;3.17;;
75823;SDS011;64457;51.976;9.834;2023-06-14T02:00:07;10.03;;;3.00;;
75823;SDS011;64457;51.976;9.834;2023-06-14T02:02:37;10.43;;;2.97;;
75823;SDS011;64457;51.976;9.834;2023-06-14T02:05:05;11.13;;;3.20;;
75823;SDS011;64457;51.976;9.834;2023-06-14T02:07:32;8.37;;;2.80;;
75823;SDS011;64457;51.976;9.834;2023-06-14T02:10:00;12.60;;;3.53;;
75823;SDS011;64457;51.976;9.834;2023-06-14T02:12:27;10.00;;;3.23;;
75823;SDS011;64457;51.976;9.834;2023-06-14T02:14:56;12.70;;;3.40;;
75823;SDS011;64457;51.976;9.834;2023-06-14T02:17:23;9.07;;;3.40;;
75823;SDS011;64457;51.976;9.834;2023-06-14T02:19:51;9.20;;;3.43;;
75823;SDS011;64457;51.976;9.834;2023-06-14T02:22:18;9.20;;;2.90;;
75823;SDS011;64457;51.976;9.834;2023-06-14T02:24:47;9.23;;;2.90;;
75823;SDS011;64457;51.976;9.834;2023-06-14T02:27:14;9.43;;;3.33;;
75823;SDS011;64457;51.976;9.834;2023-06-14T02:29:42;9.97;;;3.30;;
75823;SDS011;64457;51.976;9.834;2023-06-14T02:32:10;13.40;;;3.10;;
75823;SDS011;64457;51.976;9.834;2023-06-14T02:34:38;10.30;;;3.00;;
75823;SDS011;64457;51.976;9.834;2023-06-14T02:37:06;9.80;;;3.03;;
75823;SDS011;64457;51.976;9.834;2023-06-14T02:39:34;8.47;;;3.10;;
75823;SDS011;64457;51.976;9.834;2023-06-14T02:42:02;10.67;;;2.77;;
75823;SDS011;64457;51.976;9.834;2023-06-14T02:44:29;10.90;;;3.33;;
75823;SDS011;64457;51.976;9.834;2023-06-14T02:46:57;8.90;;;2.73;;
75823;SDS011;64457;51.976;9.834;2023-06-14T02:49:27;9.50;;;2.90;;
75823;SDS011;64457;51.976;9.834;2023-06-14T02:51:54;10.60;;;3.37;;
75823;SDS011;64457;51.976;9.834;2023-06-14T02:54:22;13.40;;;2.60;;
75823;SDS011;64457;51.976;9.834;2023-06-14T02:56:49;10.13;;;2.90;;
75823;SDS011;64457;51.976;9.834;2023-06-14T02:59:17;10.13;;;2.90;;
75823;SDS011;64457;51.976;9.834;2023-06-14T03:01:44;9.37;;;3.40;;
75823;SDS011;64457;51.976;9.834;2023-06-14T03:04:11;15.90;;;3.70;;
75823;SDS011;64457;51.976;9.834;2023-06-14T03:06:40;8.23;;;2.93;;
75823;SDS011;64457;51.976;9.834;2023-06-14T03:09:09;9.07;;;3.10;;
75823;SDS011;64457;51.976;9.834;2023-06-14T03:11:36;8.73;;;2.87;;
75823;SDS011;64457;51.976;9.834;2023-06-14T03:14:04;9.07;;;3.60;;
75823;SDS011;64457;51.976;9.834;2023-06-14T03:16:33;8.47;;;2.97;;
75823;SDS011;64457;51.976;9.834;2023-06-14T03:19:02;8.80;;;2.97;;
75823;SDS011;64457;51.976;9.834;2023-06-14T03:21:30;8.40;;;2.77;;
75823;SDS011;64457;51.976;9.834;2023-06-14T03:23:59;8.70;;;3.00;;
75823;SDS011;64457;51.976;9.834;2023-06-14T03:26:27;8.67;;;2.93;;
75823;SDS011;64457;51.976;9.834;2023-06-14T03:28:55;19.33;;;3.60;;
75823;SDS011;64457;51.976;9.834;2023-06-14T03:31:22;9.10;;;2.83;;
75823;SDS011;64457;51.976;9.834;2023-06-14T03:33:50;8.80;;;2.93;;
75823;SDS011;64457;51.976;9.834;2023-06-14T03:36:17;8.53;;;2.97;;
75823;SDS011;64457;51.976;9.834;2023-06-14T03:38:45;9.40;;;2.90;;
75823;SDS011;64457;51.976;9.834;2023-06-14T03:41:14;12.40;;;3.00;;
75823;SDS011;64457;51.976;9.834;2023-06-14T03:43:42;9.50;;;3.10;;
75823;SDS011;64457;51.976;9.834;2023-06-14T03:46:09;9.23;;;2.90;;
75823;SDS011;64457;51.976;9.834;2023-06-14T03:48:36;7.77;;;2.83;;
75823;SDS011;64457;51.976;9.834;2023-06-14T03:51:04;8.60;;;2.83;;
75823;SDS011;64457;51.976;9.834;2023-06-14T03:53:31;11.50;;;3.10;;
75823;SDS011;64457;51.976;9.834;2023-06-14T03:56:01;8.70;;;3.07;;
75823;SDS011;64457;51.976;9.834;2023-06-14T03:58:29;12.83;;;3.27;;
75823;SDS011;64457;51.976;9.834;2023-06-14T04:00:57;10.00;;;3.17;;
75823;SDS011;64457;51.976;9.834;2023-06-14T04:03:24;13.00;;;2.80;;
75823;SDS011;64457;51.976;9.834;2023-06-14T04:05:54;9.97;;;2.83;;
75823;SDS011;64457;51.976;9.834;2023-06-14T04:08:25;8.53;;;3.00;;
75823;SDS011;64457;51.976;9.834;2023-06-14T04:10:52;10.00;;;3.20;;
75823;SDS011;64457;51.976;9.834;2023-06-14T04:13:19;11.53;;;3.23;;
75823;SDS011;64457;51.976;9.834;2023-06-14T04:15:48;9.33;;;2.93;;
75823;SDS011;64457;51.976;9.834;2023-06-14T04:18:16;12.87;;;3.10;;
75823;SDS011;64457;51.976;9.834;2023-06-14T04:20:45;8.70;;;2.57;;
75823;SDS011;64457;51.976;9.834;2023-06-14T04:23:12;8.47;;;3.00;;
75823;SDS011;64457;51.976;9.834;2023-06-14T04:25:40;8.93;;;3.03;;
75823;SDS011;64457;51.976;9.834;2023-06-14T04:28:10;8.77;;;3.43;;
75823;SDS011;64457;51.976;9.834;2023-06-14T04:30:39;8.10;;;2.90;;
75823;SDS011;64457;51.976;9.834;2023-06-14T04:33:08;8.40;;;3.00;;
75823;SDS011;64457;51.976;9.834;2023-06-14T04:35:36;12.33;;;2.87;;
75823;SDS011;64457;51.976;9.834;2023-06-14T04:38:04;8.20;;;2.97;;
75823;SDS011;64457;51.976;9.834;2023-06-14T04:40:34;9.80;;;2.97;;
75823;SDS011;64457;51.976;9.834;2023-06-14T04:43:07;8.97;;;3.60;;
75823;SDS011;64457;51.976;9.834;2023-06-14T04:45:38;9.20;;;2.87;;
75823;SDS011;64457;51.976;9.834;2023-06-14T04:48:07;9.03;;;2.90;;
75823;SDS011;64457;51.976;9.834;2023-06-14T04:50:35;7.67;;;2.70;;
75823;SDS011;64457;51.976;9.834;2023-06-14T04:53:05;9.60;;;2.73;;
75823;SDS011;64457;51.976;9.834;2023-06-14T04:55:32;8.67;;;3.10;;
75823;SDS011;64457;51.976;9.834;2023-06-14T04:58:00;10.40;;;2.90;;
75823;SDS011;64457;51.976;9.834;2023-06-14T05:00:27;7.70;;;2.77;;
75823;SDS011;64457;51.976;9.834;2023-06-14T05:02:55;9.70;;;3.23;;
75823;SDS011;64457;51.976;9.834;2023-06-14T05:05:24;8.57;;;2.83;;
75823;SDS011;64457;51.976;9.834;2023-06-14T05:07:52;13.03;;;2.77;;
75823;SDS011;64457;51.976;9.834;2023-06-14T05:10:19;8.03;;;3.00;;
75823;SDS011;64457;51.976;9.834;2023-06-14T05:12:47;8.70;;;2.90;;
75823;SDS011;64457;51.976;9.834;2023-06-14T05:15:15;8.20;;;2.80;;
75823;SDS011;64457;51.976;9.834;2023-06-14T05:17:42;8.00;;;2.70;;
75823;SDS011;64457;51.976;9.834;2023-06-14T05:20:18;9.37;;;2.70;;
75823;SDS011;64457;51.976;9.834;2023-06-14T05:22:47;7.90;;;2.57;;
75823;SDS011;64457;51.976;9.834;2023-06-14T05:25:15;8.80;;;2.60;;
75823;SDS011;64457;51.976;9.834;2023-06-14T05:27:42;9.23;;;3.10;;
75823;SDS011;64457;51.976;9.834;2023-06-14T05:30:10;11.17;;;3.00;;
75823;SDS011;64457;51.976;9.834;2023-06-14T05:32:39;9.90;;;2.63;;
75823;SDS011;64457;51.976;9.834;2023-06-14T05:35:07;9.37;;;2.80;;
75823;SDS011;64457;51.976;9.834;2023-06-14T05:37:35;10.20;;;2.80;;
75823;SDS011;64457;51.976;9.834;2023-06-14T05:40:05;8.30;;;2.97;;
75823;SDS011;64457;51.976;9.834;2023-06-14T05:42:34;7.53;;;2.33;;
75823;SDS011;64457;51.976;9.834;2023-06-14T05:45:02;11.47;;;2.70;;
75823;SDS011;64457;51.976;9.834;2023-06-14T05:47:31;7.53;;;2.17;;
75823;SDS011;64457;51.976;9.834;2023-06-14T05:49:58;10.10;;;2.53;;
75823;SDS011;64457;51.976;9.834;2023-06-14T05:52:25;9.77;;;2.17;;
75823;SDS011;64457;51.976;9.834;2023-06-14T05:54:53;7.87;;;2.27;;
75823;SDS011;64457;51.976;9.834;2023-06-14T05:57:22;7.67;;;2.13;;
75823;SDS011;64457;51.976;9.834;2023-06-14T05:59:49;7.40;;;2.10;;
75823;SDS011;64457;51.976;9.834;2023-06-14T06:02:19;8.03;;;2.23;;
75823;SDS011;64457;51.976;9.834;2023-06-14T06:04:46;8.00;;;2.10;;
75823;SDS011;64457;51.976;9.834;2023-06-14T06:07:14;8.93;;;2.33;;
75823;SDS011;64457;51.976;9.834;2023-06-14T06:09:41;11.93;;;2.20;;
75823;SDS011;64457;51.976;9.834;2023-06-14T06:12:09;9.23;;;1.90;;
75823;SDS011;64457;51.976;9.834;2023-06-14T06:14:38;8.03;;;2.17;;
75823;SDS011;64457;51.976;9.834;2023-06-14T06:17:06;9.33;;;2.50;;
75823;SDS011;64457;51.976;9.834;2023-06-14T06:19:33;7.30;;;1.90;;
75823;SDS011;64457;51.976;9.834;2023-06-14T06:22:01;7.17;;;1.70;;
75823;SDS011;64457;51.976;9.834;2023-06-14T06:24:30;6.70;;;1.93;;
75823;SDS011;64457;51.976;9.834;2023-06-14T06:26:57;9.90;;;2.10;;
75823;SDS011;64457;51.976;9.834;2023-06-14T06:29:25;7.90;;;1.93;;
75823;SDS011;64457;51.976;9.834;2023-06-14T06:31:54;9.07;;;2.10;;
75823;SDS011;64457;51.976;9.834;2023-06-14T06:34:21;7.73;;;2.00;;
75823;SDS011;64457;51.976;9.834;2023-06-14T06:36:49;7.90;;;1.90;;
75823;SDS011;64457;51.976;9.834;2023-06-14T06:39:16;5.97;;;1.80;;
75823;SDS011;64457;51.976;9.834;2023-06-14T06:41:43;10.87;;;1.90;;
75823;SDS011;64457;51.976;9.834;2023-06-14T06:44:11;5.60;;;1.83;;
75823;SDS011;64457;51.976;9.834;2023-06-14T06:46:38;11.83;;;2.10;;
75823;SDS011;64457;51.976;9.834;2023-06-14T06:49:09;10.43;;;2.30;;
75823;SDS011;64457;51.976;9.834;2023-06-14T06:51:37;4.83;;;1.43;;
75823;SDS011;64457;51.976;9.834;2023-06-14T06:54:08;5.40;;;1.83;;
75823;SDS011;64457;51.976;9.834;2023-06-14T06:56:36;6.03;;;2.00;;
75823;SDS011;64457;51.976;9.834;2023-06-14T06:59:04;5.30;;;1.63;;
75823;SDS011;64457;51.976;9.834;2023-06-14T07:01:31;10.50;;;2.10;;
75823;SDS011;64457;51.976;9.834;2023-06-14T07:03:59;9.60;;;1.70;;
75823;SDS011;64457;51.976;9.834;2023-06-14T07:06:28;10.53;;;1.87;;
75823;SDS011;64457;51.976;9.834;2023-06-14T07:08:55;5.47;;;1.80;;
75823;SDS011;64457;51.976;9.834;2023-06-14T07:11:26;5.80;;;1.77;;
75823;SDS011;64457;51.976;9.834;2023-06-14T07:13:53;9.93;;;2.10;;
75823;SDS011;64457;51.976;9.834;2023-06-14T07:16:21;5.20;;;1.80;;
75823;SDS011;64457;51.976;9.834;2023-06-14T07:18:48;6.73;;;1.70;;
75823;SDS011;64457;51.976;9.834;2023-06-14T07:21:16;6.77;;;1.83;;
75823;SDS011;64457;51.976;9.834;2023-06-14T07:23:44;5.70;;;1.80;;
75823;SDS011;64457;51.976;9.834;2023-06-14T07:26:12;6.90;;;2.00;;
75823;SDS011;64457;51.976;9.834;2023-06-14T07:28:39;7.43;;;1.40;;
75823;SDS011;64457;51.976;9.834;2023-06-14T07:31:10;4.90;;;1.60;;
75823;SDS011;64457;51.976;9.834;2023-06-14T07:33:38;5.30;;;1.60;;
75823;SDS011;64457;51.976;9.834;2023-06-14T07:36:06;6.07;;;1.60;;
75823;SDS011;64457;51.976;9.834;2023-06-14T07:38:33;7.90;;;2.13;;
75823;SDS011;64457;51.976;9.834;2023-06-14T07:41:03;4.60;;;1.60;;
75823;SDS011;64457;51.976;9.834;2023-06-14T07:43:30;5.10;;;1.57;;
75823;SDS011;64457;51.976;9.834;2023-06-14T07:45:58;5.33;;;1.77;;
75823;SDS011;64457;51.976;9.834;2023-06-14T07:48:25;5.63;;;1.80;;
75823;SDS011;64457;51.976;9.834;2023-06-14T07:50:53;13.83;;;2.37;;
75823;SDS011;64457;51.976;9.834;2023-06-14T07:53:20;7.77;;;1.70;;
75823;SDS011;64457;51.976;9.834;2023-06-14T07:55:49;6.80;;;2.20;;
75823;SDS011;64457;51.976;9.834;2023-06-14T07:58:20;8.33;;;2.00;;
75823;SDS011;64457;51.976;9.834;2023-06-14T08:00:47;6.17;;;2.03;;
75823;SDS011;64457;51.976;9.834;2023-06-14T08:03:15;9.27;;;1.83;;
75823;SDS011;64457;51.976;9.834;2023-06-14T08:05:43;5.73;;;1.80;;
75823;SDS011;64457;51.976;9.834;2023-06-14T08:08:10;6.10;;;1.83;;
75823;SDS011;64457;51.976;9.834;2023-06-14T08:10:39;15.53;;;2.40;;
75823;SDS011;64457;51.976;9.834;2023-06-14T08:13:08;5.77;;;1.87;;
75823;SDS011;64457;51.976;9.834;2023-06-14T08:15:39;6.23;;;2.00;;
75823;SDS011;64457;51.976;9.834;2023-06-14T08:18:08;5.00;;;1.63;;
75823;SDS011;64457;51.976;9.834;2023-06-14T08:20:36;7.10;;;1.70;;
75823;SDS011;64457;51.976;9.834;2023-06-14T08:23:04;6.77;;;1.63;;
75823;SDS011;64457;51.976;9.834;2023-06-14T08:25:31;7.00;;;1.90;;
75823;SDS011;64457;51.976;9.834;2023-06-14T08:27:58;10.70;;;1.90;;
75823;SDS011;64457;51.976;9.834;2023-06-14T08:30:26;6.43;;;1.63;;
75823;SDS011;64457;51.976;9.834;2023-06-14T08:32:55;6.30;;;1.77;;
75823;SDS011;64457;51.976;9.834;2023-06-14T08:35:23;5.80;;;1.60;;
75823;SDS011;64457;51.976;9.834;2023-06-14T08:37:50;5.23;;;1.70;;
75823;SDS011;64457;51.976;9.834;2023-06-14T08:40:18;7.77;;;3.00;;
75823;SDS011;64457;51.976;9.834;2023-06-14T08:42:50;4.77;;;1.30;;
75823;SDS011;64457;51.976;9.834;2023-06-14T08:45:21;8.53;;;1.70;;
75823;SDS011;64457;51.976;9.834;2023-06-14T08:47:50;4.50;;;1.40;;
75823;SDS011;64457;51.976;9.834;2023-06-14T08:50:24;5.27;;;1.33;;
75823;SDS011;64457;51.976;9.834;2023-06-14T08:52:55;4.60;;;1.57;;
75823;SDS011;64457;51.976;9.834;2023-06-14T08:55:27;6.10;;;1.60;;
75823;SDS011;64457;51.976;9.834;2023-06-14T08:57:58;11.50;;;2.00;;
75823;SDS011;64457;51.976;9.834;2023-06-14T09:00:26;10.93;;;1.77;;
75823;SDS011;64457;51.976;9.834;2023-06-14T09:02:54;6.53;;;1.90;;
75823;SDS011;64457;51.976;9.834;2023-06-14T09:05:25;9.67;;;2.13;;
75823;SDS011;64457;51.976;9.834;2023-06-14T09:07:56;6.87;;;1.90;;
75823;SDS011;64457;51.976;9.834;2023-06-14T09:10:25;7.33;;;2.13;;
75823;SDS011;64457;51.976;9.834;2023-06-14T09:12:55;6.20;;;1.70;;
75823;SDS011;64457;51.976;9.834;2023-06-14T09:15:25;7.80;;;1.83;;
75823;SDS011;64457;51.976;9.834;2023-06-14T09:17:53;7.23;;;1.80;;
75823;SDS011;64457;51.976;9.834;2023-06-14T09:20:20;6.93;;;1.93;;
75823;SDS011;64457;51.976;9.834;2023-06-14T09:22:51;12.13;;;2.10;;
75823;SDS011;64457;51.976;9.834;2023-06-14T09:25:20;7.67;;;2.17;;
75823;SDS011;64457;51.976;9.834;2023-06-14T09:27:51;6.93;;;1.70;;
75823;SDS011;64457;51.976;9.834;2023-06-14T09:30:19;6.97;;;2.20;;
75823;SDS011;64457;51.976;9.834;2023-06-14T09:32:47;7.87;;;2.53;;
75823;SDS011;64457;51.976;9.834;2023-06-14T09:35:16;8.10;;;2.00;;
75823;SDS011;64457;51.976;9.834;2023-06-14T09:37:46;9.90;;;2.73;;
75823;SDS011;64457;51.976;9.834;2023-06-14T09:40:14;7.17;;;2.30;;
75823;SDS011;64457;51.976;9.834;2023-06-14T09:42:47;8.83;;;2.20;;
75823;SDS011;64457;51.976;9.834;2023-06-14T09:45:15;8.77;;;2.30;;
75823;SDS011;64457;51.976;9.834;2023-06-14T09:47:46;8.53;;;2.20;;
75823;SDS011;64457;51.976;9.834;2023-06-14T09:50:16;9.00;;;2.40;;
75823;SDS011;64457;51.976;9.834;2023-06-14T09:52:43;7.60;;;2.50;;
75823;SDS011;64457;51.976;9.834;2023-06-14T09:55:14;7.50;;;2.50;;
75823;SDS011;64457;51.976;9.834;2023-06-14T09:57:42;8.27;;;2.67;;
75823;SDS011;64457;51.976;9.834;2023-06-14T10:00:15;8.53;;;2.10;;
75823;SDS011;64457;51.976;9.834;2023-06-14T10:02:46;7.00;;;1.97;;
75823;SDS011;64457;51.976;9.834;2023-06-14T10:05:21;9.57;;;2.40;;
75823;SDS011;64457;51.976;9.834;2023-06-14T10:07:54;8.90;;;2.40;;
75823;SDS011;64457;51.976;9.834;2023-06-14T10:10:26;7.33;;;2.10;;
75823;SDS011;64457;51.976;9.834;2023-06-14T10:12:54;8.53;;;2.30;;
75823;SDS011;64457;51.976;9.834;2023-06-14T10:15:23;8.20;;;2.10;;
75823;SDS011;64457;51.976;9.834;2023-06-14T10:18:06;11.03;;;2.33;;
75823;SDS011;64457;51.976;9.834;2023-06-14T10:20:48;7.50;;;2.20;;
75823;SDS011;64457;51.976;9.834;2023-06-14T10:23:27;7.83;;;2.17;;
75823;SDS011;64457;51.976;9.834;2023-06-14T10:25:56;10.53;;;2.00;;
75823;SDS011;64457;51.976;9.834;2023-06-14T10:28:25;7.70;;;2.10;;
75823;SDS011;64457;51.976;9.834;2023-06-14T10:31:02;7.50;;;2.57;;
75823;SDS011;64457;51.976;9.834;2023-06-14T10:33:34;11.00;;;1.87;;
75823;SDS011;64457;51.976;9.834;2023-06-14T10:36:07;6.73;;;1.80;;
75823;SDS011;64457;51.976;9.834;2023-06-14T10:38:37;8.27;;;1.80;;
75823;SDS011;64457;51.976;9.834;2023-06-14T10:41:05;6.47;;;1.87;;
75823;SDS011;64457;51.976;9.834;2023-06-14T10:43:33;10.43;;;2.37;;
75823;SDS011;64457;51.976;9.834;2023-06-14T10:46:17;6.57;;;1.80;;
75823;SDS011;64457;51.976;9.834;2023-06-14T10:48:48;23.43;;;2.23;;
75823;SDS011;64457;51.976;9.834;2023-06-14T10:51:16;7.03;;;1.90;;
75823;SDS011;64457;51.976;9.834;2023-06-14T10:53:58;6.70;;;2.03;;
75823;SDS011;64457;51.976;9.834;2023-06-14T10:56:26;7.73;;;2.00;;
75823;SDS011;64457;51.976;9.834;2023-06-14T10:58:56;7.13;;;2.00;;
75823;SDS011;64457;51.976;9.834;2023-06-14T11:01:29;8.20;;;2.27;;
75823;SDS011;64457;51.976;9.834;2023-06-14T11:04:07;6.90;;;1.90;;
75823;SDS011;64457;51.976;9.834;2023-06-14T11:06:45;5.97;;;1.73;;
75823;SDS011;64457;51.976;9.834;2023-06-14T11:09:23;7.80;;;1.80;;
75823;SDS011;64457;51.976;9.834;2023-06-14T11:12:13;6.90;;;1.87;;
75823;SDS011;64457;51.976;9.834;2023-06-14T11:14:42;6.47;;;1.87;;
75823;SDS011;64457;51.976;9.834;2023-06-14T11:17:13;7.27;;;2.00;;
75823;SDS011;64457;51.976;9.834;2023-06-14T11:19:40;6.60;;;1.83;;
75823;SDS011;64457;51.976;9.834;2023-06-14T11:22:08;6.00;;;1.50;;
75823;SDS011;64457;51.976;9.834;2023-06-14T11:24:36;6.40;;;2.07;;
75823;SDS011;64457;51.976;9.834;2023-06-14T11:27:04;6.23;;;1.63;;
75823;SDS011;64457;51.976;9.834;2023-06-14T11:29:34;11.10;;;1.90;;
75823;SDS011;64457;51.976;9.834;2023-06-14T11:32:01;10.67;;;2.03;;
75823;SDS011;64457;51.976;9.834;2023-06-14T11:34:29;10.30;;;2.30;;
75823;SDS011;64457;51.976;9.834;2023-06-14T11:36:56;11.23;;;2.50;;
75823;SDS011;64457;51.976;9.834;2023-06-14T11:39:24;19.60;;;1.93;;
75823;SDS011;64457;51.976;9.834;2023-06-14T11:41:53;7.10;;;2.10;;
75823;SDS011;64457;51.976;9.834;2023-06-14T11:44:21;8.50;;;2.10;;
75823;SDS011;64457;51.976;9.834;2023-06-14T11:46:49;7.83;;;2.40;;
75823;SDS011;64457;51.976;9.834;2023-06-14T11:49:17;8.10;;;2.10;;
75823;SDS011;64457;51.976;9.834;2023-06-14T11:51:44;7.77;;;2.17;;
75823;SDS011;64457;51.976;9.834;2023-06-14T11:54:13;9.80;;;2.50;;
75823;SDS011;64457;51.976;9.834;2023-06-14T11:56:41;11.83;;;2.70;;
75823;SDS011;64457;51.976;9.834;2023-06-14T11:59:10;7.63;;;2.00;;
75823;SDS011;64457;51.976;9.834;2023-06-14T12:01:42;7.27;;;2.10;;
75823;SDS011;64457;51.976;9.834;2023-06-14T12:04:10;11.33;;;2.67;;
75823;SDS011;64457;51.976;9.834;2023-06-14T12:06:38;7.67;;;2.80;;
75823;SDS011;64457;51.976;9.834;2023-06-14T12:09:06;6.80;;;2.33;;
75823;SDS011;64457;51.976;9.834;2023-06-14T12:11:38;7.23;;;2.13;;
75823;SDS011;64457;51.976;9.834;2023-06-14T12:14:05;11.60;;;2.30;;
75823;SDS011;64457;51.976;9.834;2023-06-14T12:16:37;7.83;;;2.23;;
75823;SDS011;64457;51.976;9.834;2023-06-14T12:19:11;7.37;;;2.30;;
75823;SDS011;64457;51.976;9.834;2023-06-14T12:21:41;7.50;;;2.20;;
75823;SDS011;64457;51.976;9.834;2023-06-14T12:24:12;9.73;;;2.70;;
75823;SDS011;64457;51.976;9.834;2023-06-14T12:26:39;8.37;;;2.60;;
75823;SDS011;64457;51.976;9.834;2023-06-14T12:29:13;7.10;;;2.20;;
75823;SDS011;64457;51.976;9.834;2023-06-14T12:31:43;12.30;;;2.67;;
75823;SDS011;64457;51.976;9.834;2023-06-14T12:34:10;9.60;;;2.70;;
75823;SDS011;64457;51.976;9.834;2023-06-14T12:36:38;12.03;;;3.13;;
75823;SDS011;64457;51.976;9.834;2023-06-14T12:39:10;8.00;;;2.83;;
75823;SDS011;64457;51.976;9.834;2023-06-14T12:41:39;8.90;;;2.70;;
75823;SDS011;64457;51.976;9.834;2023-06-14T12:44:08;8.23;;;2.87;;
75823;SDS011;64457;51.976;9.834;2023-06-14T12:46:37;11.80;;;3.03;;
75823;SDS011;64457;51.976;9.834;2023-06-14T12:49:07;8.27;;;2.80;;
75823;SDS011;64457;51.976;9.834;2023-06-14T12:51:36;9.70;;;2.87;;
75823;SDS011;64457;51.976;9.834;2023-06-14T12:54:05;8.00;;;2.53;;
75823;SDS011;64457;51.976;9.834;2023-06-14T12:56:33;14.23;;;2.93;;
75823;SDS011;64457;51.976;9.834;2023-06-14T12:59:01;8.60;;;3.07;;
75823;SDS011;64457;51.976;9.834;2023-06-14T13:01:29;10.23;;;2.93;;
75823;SDS011;64457;51.976;9.834;2023-06-14T13:03:57;13.43;;;2.83;;
75823;SDS011;64457;51.976;9.834;2023-06-14T13:06:24;9.20;;;3.00;;
75823;SDS011;64457;51.976;9.834;2023-06-14T13:08:52;15.83;;;3.33;;
75823;SDS011;64457;51.976;9.834;2023-06-14T13:11:22;8.20;;;2.80;;
75823;SDS011;64457;51.976;9.834;2023-06-14T13:13:50;11.20;;;3.10;;
75823;SDS011;64457;51.976;9.834;2023-06-14T13:16:17;11.13;;;2.60;;
75823;SDS011;64457;51.976;9.834;2023-06-14T13:18:46;9.80;;;2.73;;
75823;SDS011;64457;51.976;9.834;2023-06-14T13:21:14;20.47;;;3.40;;
75823;SDS011;64457;51.976;9.834;2023-06-14T13:23:41;7.40;;;2.50;;
75823;SDS011;64457;51.976;9.834;2023-06-14T13:26:09;8.03;;;2.63;;
75823;SDS011;64457;51.976;9.834;2023-06-14T13:28:37;7.37;;;3.00;;
75823;SDS011;64457;51.976;9.834;2023-06-14T13:31:05;11.87;;;3.20;;
75823;SDS011;64457;51.976;9.834;2023-06-14T13:33:32;8.73;;;2.60;;
75823;SDS011;64457;51.976;9.834;2023-06-14T13:36:02;12.77;;;3.03;;
75823;SDS011;64457;51.976;9.834;2023-06-14T13:38:30;7.97;;;3.00;;
75823;SDS011;64457;51.976;9.834;2023-06-14T13:40:58;10.27;;;3.00;;
75823;SDS011;64457;51.976;9.834;2023-06-14T13:43:26;10.17;;;2.97;;
75823;SDS011;64457;51.976;9.834;2023-06-14T13:45:53;11.00;;;2.87;;
75823;SDS011;64457;51.976;9.834;2023-06-14T13:48:21;19.00;;;3.30;;
75823;SDS011;64457;51.976;9.834;2023-06-14T13:50:49;9.90;;;2.70;;
75823;SDS011;64457;51.976;9.834;2023-06-14T13:53:17;12.93;;;3.30;;
75823;SDS011;64457;51.976;9.834;2023-06-14T13:55:45;8.40;;;3.17;;
75823;SDS011;64457;51.976;9.834;2023-06-14T13:58:12;10.40;;;3.03;;
75823;SDS011;64457;51.976;9.834;2023-06-14T14:00:41;10.90;;;3.00;;
75823;SDS011;64457;51.976;9.834;2023-06-14T14:03:08;10.47;;;2.70;;
75823;SDS011;64457;51.976;9.834;2023-06-14T14:05:36;9.00;;;3.10;;
75823;SDS011;64457;51.976;9.834;2023-06-14T14:08:03;14.40;;;2.83;;
75823;SDS011;64457;51.976;9.834;2023-06-14T14:10:33;12.07;;;3.83;;
75823;SDS011;64457;51.976;9.834;2023-06-14T14:13:01;8.37;;;3.00;;
75823;SDS011;64457;51.976;9.834;2023-06-14T14:15:28;9.43;;;3.00;;
75823;SDS011;64457;51.976;9.834;2023-06-14T14:17:56;10.40;;;3.07;;
75823;SDS011;64457;51.976;9.834;2023-06-14T14:20:24;12.10;;;3.00;;
75823;SDS011;64457;51.976;9.834;2023-06-14T14:22:52;11.63;;;3.50;;
75823;SDS011;64457;51.976;9.834;2023-06-14T14:25:20;10.17;;;3.50;;
75823;SDS011;64457;51.976;9.834;2023-06-14T14:27:48;7.60;;;2.70;;
75823;SDS011;64457;51.976;9.834;2023-06-14T14:30:16;7.47;;;2.53;;
75823;SDS011;64457;51.976;9.834;2023-06-14T14:32:48;8.10;;;3.00;;
75823;SDS011;64457;51.976;9.834;2023-06-14T14:35:16;8.87;;;3.33;;
75823;SDS011;64457;51.976;9.834;2023-06-14T14:37:44;9.30;;;3.20;;
75823;SDS011;64457;51.976;9.834;2023-06-14T14:40:12;10.57;;;3.23;;
75823;SDS011;64457;51.976;9.834;2023-06-14T14:42:39;17.17;;;3.50;;
75823;SDS011;64457;51.976;9.834;2023-06-14T14:45:09;8.53;;;2.80;;
75823;SDS011;64457;51.976;9.834;2023-06-14T14:47:37;8.07;;;2.77;;
75823;SDS011;64457;51.976;9.834;2023-06-14T14:50:05;11.53;;;3.40;;
75823;SDS011;64457;51.976;9.834;2023-06-14T14:52:34;10.77;;;2.83;;
75823;SDS011;64457;51.976;9.834;2023-06-14T14:55:02;8.70;;;2.80;;